Time;durP1;ratioP1;P1;durP2;ratioP2;P2;SDS_P1;SDS_P2;PMS_P1;PMS_P2;Temp;Humidity;BMP_temperature;BMP_pressure;BME280_temperature;BME280_humidity;BME280_pressure;Samples;Min_cycle;Max_cycle;Signal;HPM_P1;HPM_P2
2023/09/12 00:01:05;;;;;;;35.35;28.13;;;;;;;20.61;100.00;101147.25;5109100;28;20097;-52
2023/09/12 00:03:34;;;;;;;43.28;30.42;;;;;;;20.61;100.00;101120.53;5109084;28;20154;-54
2023/09/12 00:06:03;;;;;;;38.25;29.52;;;;;;;20.57;100.00;101112.03;5110522;28;20036;-54
2023/09/12 00:08:32;;;;;;;37.83;29.02;;;;;;;20.55;100.00;101107.84;5109283;28;20051;-55
2023/09/12 00:11:04;;;;;;;39.08;28.63;;;;;;;20.52;100.00;101098.31;5107525;28;20075;-53
2023/09/12 00:13:33;;;;;;;35.78;28.52;;;;;;;20.46;100.00;101090.91;5111952;28;20044;-55
2023/09/12 00:16:02;;;;;;;37.45;29.27;;;;;;;20.40;100.00;101092.41;5111821;28;20055;-53
2023/09/12 00:18:30;;;;;;;37.22;29.88;;;;;;;20.43;100.00;101096.59;5111768;28;20092;-54
2023/09/12 00:21:00;;;;;;;35.92;28.95;;;;;;;20.51;100.00;101093.97;5111541;28;20492;-53
2023/09/12 00:23:29;;;;;;;32.80;27.38;;;;;;;20.53;100.00;101105.34;5110060;28;20055;-54
2023/09/12 00:25:58;;;;;;;37.50;30.48;;;;;;;20.51;100.00;101112.66;5107263;28;20055;-53
2023/09/12 00:28:26;;;;;;;37.97;30.13;;;;;;;20.47;100.00;101119.31;5109413;28;20062;-53
2023/09/12 00:30:59;;;;;;;40.50;30.05;;;;;;;20.42;100.00;101135.81;5110216;28;20118;-52
2023/09/12 00:33:27;;;;;;;35.97;28.77;;;;;;;20.39;100.00;101137.97;5112294;28;20085;-52
2023/09/12 00:35:55;;;;;;;38.10;29.67;;;;;;;20.36;100.00;101136.44;5112244;28;20718;-53
2023/09/12 00:38:23;;;;;;;39.17;29.60;;;;;;;20.42;100.00;101130.47;5111726;28;20055;-52
2023/09/12 00:40:51;;;;;;;38.08;30.48;;;;;;;20.40;100.00;101147.66;5111489;28;20452;-52
2023/09/12 00:43:19;;;;;;;36.67;30.20;;;;;;;20.32;100.00;101167.13;5112749;27;20055;-60
2023/09/12 00:45:48;;;;;;;36.72;28.52;;;;;;;20.24;100.00;101177.75;5114379;28;20051;-60
2023/09/12 00:48:19;;;;;;;41.38;30.50;;;;;;;20.09;100.00;101188.97;5114272;28;20134;-60
2023/09/12 00:50:49;;;;;;;39.55;31.02;;;;;;;20.01;100.00;101193.41;5115782;28;20035;-60
2023/09/12 00:53:19;;;;;;;38.88;30.95;;;;;;;19.94;100.00;101177.16;5114892;28;20429;-60
2023/09/12 00:55:53;;;;;;;41.42;32.90;;;;;;;19.92;100.00;101160.47;5111389;28;20050;-60
2023/09/12 00:58:22;;;;;;;41.45;32.58;;;;;;;19.82;100.00;101141.03;5114327;28;20379;-61
2023/09/12 01:00:50;;;;;;;39.90;31.38;;;;;;;19.91;100.00;101130.28;5114107;28;20051;-61
2023/09/12 01:03:20;;;;;;;38.92;30.95;;;;;;;19.94;100.00;101115.78;5115193;28;20623;-61
2023/09/12 01:05:48;;;;;;;38.30;31.05;;;;;;;19.94;100.00;101115.78;5111803;28;20179;-61
2023/09/12 01:08:16;;;;;;;37.67;30.45;;;;;;;20.01;100.00;101113.34;5111554;28;20051;-61
2023/09/12 01:10:47;;;;;;;37.38;30.60;;;;;;;20.02;100.00;101102.50;5112826;28;20062;-60
2023/09/12 01:13:15;;;;;;;39.35;28.45;;;;;;;20.05;100.00;101112.84;5115110;28;20067;-60
2023/09/12 01:15:44;;;;;;;42.40;31.02;;;;;;;19.98;100.00;101102.97;5114622;27;20067;-61
2023/09/12 01:18:12;;;;;;;37.85;28.95;;;;;;;19.97;100.00;101094.13;5112064;28;20414;-61
2023/09/12 01:20:59;;;;;;;37.50;27.80;;;;;;;20.00;100.00;101095.63;5111523;28;20512;-54
2023/09/12 01:23:45;;;;;;;37.38;29.30;;;;;;;20.02;100.00;101099.81;5110451;28;20510;-54
2023/09/12 01:26:30;;;;;;;32.47;26.58;;;;;;;19.94;100.00;101097.09;5114323;28;20047;-51
2023/09/12 01:29:05;;;;;;;33.42;28.80;;;;;;;19.91;100.00;101092.91;5112986;28;20406;-51
2023/09/12 01:31:35;;;;;;;40.08;30.20;;;;;;;19.86;100.00;101092.53;5110961;28;20840;-53
2023/09/12 01:34:10;;;;;;;37.38;29.00;;;;;;;19.81;100.00;101100.19;5111256;28;20040;-53
2023/09/12 01:36:38;;;;;;;34.65;28.42;;;;;;;19.82;100.00;101098.34;5112714;28;20210;-53
2023/09/12 01:39:07;;;;;;;39.88;29.95;;;;;;;19.77;100.00;101091.59;5114750;28;20040;-52
2023/09/12 01:41:40;;;;;;;36.78;27.27;;;;;;;19.73;100.00;101092.91;5112991;28;20047;-53
2023/09/12 01:44:11;;;;;;;36.80;28.60;;;;;;;19.72;100.00;101093.88;5111459;28;20036;-51
2023/09/12 01:46:40;;;;;;;36.90;27.15;;;;;;;19.73;100.00;101094.75;5110875;28;20058;-53
2023/09/12 01:49:09;;;;;;;34.92;27.30;;;;;;;19.70;100.00;101090.56;5111474;28;20051;-52
2023/09/12 01:51:38;;;;;;;33.25;27.50;;;;;;;19.67;100.00;101098.84;5109563;28;20506;-52
2023/09/12 01:54:07;;;;;;;35.60;27.63;;;;;;;19.67;100.00;101092.69;5110705;28;20062;-53
2023/09/12 01:56:36;;;;;;;39.65;26.83;;;;;;;19.55;100.00;101089.41;5112541;28;20047;-52
2023/09/12 01:59:04;;;;;;;34.90;28.95;;;;;;;19.59;100.00;101101.44;5111798;28;20108;-53
2023/09/12 02:01:34;;;;;;;34.78;28.20;;;;;;;19.57;100.00;101098.94;5110817;28;20062;-53
2023/09/12 02:04:03;;;;;;;36.88;27.20;;;;;;;19.55;100.00;101097.41;5110769;28;20080;-53
2023/09/12 02:06:31;;;;;;;36.38;28.27;;;;;;;19.54;100.00;101093.09;5109952;28;20035;-53
2023/09/12 02:08:59;;;;;;;35.05;27.80;;;;;;;19.51;100.00;101088.03;5109582;28;20040;-52
2023/09/12 02:11:27;;;;;;;34.20;28.30;;;;;;;19.40;100.00;101091.75;5109974;28;20394;-52
2023/09/12 02:13:55;;;;;;;33.92;26.77;;;;;;;19.41;100.00;101088.09;5110628;28;20402;-51
2023/09/12 02:16:23;;;;;;;34.88;27.83;;;;;;;19.33;100.00;101083.53;5110444;28;20800;-52
2023/09/12 02:18:53;;;;;;;35.10;27.65;;;;;;;19.34;100.00;101084.38;5110058;28;20391;-51
2023/09/12 02:21:21;;;;;;;35.58;28.77;;;;;;;19.35;100.00;101084.22;5109232;28;20051;-53
2023/09/12 02:23:50;;;;;;;35.00;28.45;;;;;;;19.32;100.00;101083.69;5108855;28;20171;-51
2023/09/12 02:26:18;;;;;;;41.65;29.63;;;;;;;19.32;100.00;101087.22;5109713;28;20051;-53
2023/09/12 02:28:46;;;;;;;35.67;29.27;;;;;;;19.27;100.00;101080.66;5111994;28;20043;-52
2023/09/12 02:31:14;;;;;;;37.63;27.92;;;;;;;19.22;100.00;101086.41;5113607;28;20047;-52
2023/09/12 02:33:43;;;;;;;35.85;27.55;;;;;;;19.15;100.00;101090.69;5113404;28;20078;-52
2023/09/12 02:36:12;;;;;;;36.72;27.48;;;;;;;19.14;100.00;101095.19;5113403;28;20031;-53
2023/09/12 02:38:41;;;;;;;35.08;27.90;;;;;;;19.18;100.00;101095.72;5112100;28;20050;-52
2023/09/12 02:41:09;;;;;;;35.72;27.60;;;;;;;19.16;100.00;101095.03;5112922;28;20051;-54
2023/09/12 02:43:38;;;;;;;34.08;27.10;;;;;;;19.09;100.00;101094.78;5109979;28;20051;-54
2023/09/12 02:46:06;;;;;;;33.70;26.25;;;;;;;19.11;100.00;101099.97;5110044;28;20048;-52
2023/09/12 02:48:36;;;;;;;32.13;26.48;;;;;;;19.14;100.00;101105.84;5113264;28;20537;-53
2023/09/12 02:51:04;;;;;;;32.28;26.23;;;;;;;19.08;100.00;101106.44;5113178;28;20379;-53
2023/09/12 02:53:34;;;;;;;35.70;27.75;;;;;;;19.03;100.00;101109.56;5108434;28;20047;-54
2023/09/12 02:56:02;;;;;;;34.53;26.25;;;;;;;18.98;100.00;101116.31;5108222;28;20051;-54
2023/09/12 02:58:30;;;;;;;33.10;27.25;;;;;;;18.88;100.00;101122.53;5109867;28;20512;-53
2023/09/12 03:00:59;;;;;;;33.33;26.15;;;;;;;18.92;100.00;101115.06;5109415;28;20058;-52
2023/09/12 03:03:27;;;;;;;33.78;26.15;;;;;;;18.91;100.00;101122.25;5109273;28;20048;-53
2023/09/12 03:05:59;;;;;;;34.42;25.63;;;;;;;18.90;100.00;101125.06;5109421;28;20490;-52
2023/09/12 03:08:28;;;;;;;34.85;26.58;;;;;;;18.95;100.00;101119.28;5111988;28;20441;-52
2023/09/12 03:10:58;;;;;;;34.10;25.85;;;;;;;18.88;100.00;101119.88;5108379;28;20535;-52
2023/09/12 03:13:27;;;;;;;34.35;27.23;;;;;;;18.84;100.00;101120.28;5109693;28;20047;-53
2023/09/12 03:15:55;;;;;;;33.17;26.02;;;;;;;18.77;100.00;101119.19;5109094;28;20067;-54
2023/09/12 03:18:23;;;;;;;33.72;25.88;;;;;;;18.78;100.00;101119.03;5109084;28;20047;-52
2023/09/12 03:20:52;;;;;;;33.47;24.17;;;;;;;18.81;100.00;101112.56;5109395;28;20051;-52
2023/09/12 03:23:20;;;;;;;33.08;26.13;;;;;;;18.77;100.00;101124.50;5108773;28;20053;-52
2023/09/12 03:25:49;;;;;;;35.03;26.33;;;;;;;18.81;100.00;101120.56;5112244;28;20785;-52
2023/09/12 03:28:18;;;;;;;35.38;26.25;;;;;;;18.72;100.00;101111.66;5110621;28;20533;-53
2023/09/12 03:30:46;;;;;;;35.95;26.88;;;;;;;18.68;100.00;101115.56;5108987;28;20127;-52
2023/09/12 03:33:14;;;;;;;36.05;27.98;;;;;;;18.70;100.00;101108.28;5112139;28;20179;-53
2023/09/12 03:35:44;;;;;;;33.05;28.00;;;;;;;18.73;100.00;101102.66;5108317;28;20043;-53
2023/09/12 03:38:12;;;;;;;34.10;27.42;;;;;;;18.65;100.00;101107.88;5109161;28;20043;-52
2023/09/12 03:40:40;;;;;;;33.05;27.23;;;;;;;18.70;100.00;101100.28;5109175;28;20069;-51
2023/09/12 03:43:08;;;;;;;33.05;28.13;;;;;;;18.68;100.00;101096.91;5109162;28;20150;-53
2023/09/12 03:45:38;;;;;;;35.17;28.38;;;;;;;18.71;100.00;101102.81;5108178;28;20039;-52
2023/09/12 03:48:07;;;;;;;34.38;27.42;;;;;;;18.68;100.00;101097.78;5109074;28;20860;-51
2023/09/12 03:50:38;;;;;;;36.03;27.25;;;;;;;18.73;100.00;101090.19;5112248;28;20510;-54
2023/09/12 03:53:06;;;;;;;39.08;30.30;;;;;;;18.72;100.00;101087.69;5110282;28;20040;-53
2023/09/12 03:55:34;;;;;;;39.30;30.55;;;;;;;18.67;100.00;101090.75;5107541;28;20051;-52
2023/09/12 03:58:02;;;;;;;42.90;31.52;;;;;;;18.71;100.00;101076.16;5108928;28;20432;-52
2023/09/12 04:00:30;;;;;;;44.03;31.23;;;;;;;18.72;100.00;101075.19;5111529;28;20551;-52
2023/09/12 04:03:00;;;;;;;38.75;30.02;;;;;;;18.66;100.00;101072.28;5108380;28;20047;-54
2023/09/12 04:05:28;;;;;;;37.70;28.75;;;;;;;18.71;100.00;101070.84;5108089;28;20437;-53
2023/09/12 04:07:56;;;;;;;35.42;28.83;;;;;;;18.67;100.00;101064.13;5107157;28;20495;-53
2023/09/12 04:10:25;;;;;;;34.47;27.73;;;;;;;18.78;100.00;101072.91;5107224;28;20055;-52
2023/09/12 04:12:53;;;;;;;36.28;29.42;;;;;;;18.78;100.00;101064.94;5108294;28;20048;-55
2023/09/12 04:15:21;;;;;;;37.55;28.27;;;;;;;18.72;100.00;101061.03;5108669;28;20073;-53
2023/09/12 04:17:49;;;;;;;36.40;28.63;;;;;;;18.74;100.00;101062.53;5108076;28;20125;-54
2023/09/12 04:20:19;;;;;;;35.83;27.55;;;;;;;18.78;100.00;101059.59;5108989;28;20050;-52
2023/09/12 04:22:48;;;;;;;32.42;27.15;;;;;;;18.78;100.00;101044.44;5107168;28;20051;-54
2023/09/12 04:25:16;;;;;;;32.28;26.15;;;;;;;18.84;100.00;101048.34;5110785;28;20427;-54
2023/09/12 04:27:46;;;;;;;35.03;28.35;;;;;;;18.78;100.00;101054.28;5108149;28;20115;-62
2023/09/12 04:30:14;;;;;;;37.50;29.45;;;;;;;18.72;100.00;101051.22;5109921;28;20450;-62
2023/09/12 04:32:43;;;;;;;37.47;28.63;;;;;;;18.82;100.00;101056.47;5111823;28;20043;-62
2023/09/12 04:35:11;;;;;;;37.67;28.65;;;;;;;18.82;100.00;101053.81;5109442;28;20147;-62
2023/09/12 04:37:41;;;;;;;46.72;30.67;;;;;;;18.83;100.00;101051.97;5106704;28;20051;-62
2023/09/12 04:40:10;;;;;;;36.35;29.65;;;;;;;18.81;100.00;101053.97;5107884;28;20044;-62
2023/09/12 04:42:38;;;;;;;37.72;30.70;;;;;;;18.75;100.00;101048.25;5108506;28;20036;-62
2023/09/12 04:45:08;;;;;;;34.10;27.27;;;;;;;18.75;100.00;101056.22;5108673;28;20054;-62
2023/09/12 04:47:36;;;;;;;33.35;26.80;;;;;;;18.66;100.00;101053.63;5110140;28;20040;-62
2023/09/12 04:50:07;;;;;;;33.85;27.30;;;;;;;18.55;100.00;101065.31;5111649;28;20051;-62
2023/09/12 04:52:36;;;;;;;39.58;29.08;;;;;;;18.48;100.00;101080.19;5110375;28;20135;-61
2023/09/12 04:55:06;;;;;;;49.15;30.77;;;;;;;18.48;100.00;101074.88;5111492;28;20506;-62
2023/09/12 04:57:34;;;;;;;36.85;28.42;;;;;;;18.54;100.00;101071.59;5111403;28;20035;-63
2023/09/12 05:00:05;;;;;;;41.85;30.25;;;;;;;18.62;100.00;101074.38;5111349;28;20043;-62
2023/09/12 05:02:33;;;;;;;34.78;29.92;;;;;;;18.70;100.00;101069.16;5111152;28;20044;-62
2023/09/12 05:05:02;;;;;;;37.60;31.42;;;;;;;18.71;100.00;101064.69;5111354;28;20130;-61
2023/09/12 05:07:33;;;;;;;33.15;28.98;;;;;;;18.69;100.00;101070.16;5111320;28;20398;-62
2023/09/12 05:10:02;;;;;;;36.78;30.50;;;;;;;18.71;100.00;101068.16;5109199;28;20044;-62
2023/09/12 05:12:31;;;;;;;35.78;31.30;;;;;;;18.74;100.00;101070.53;5108479;28;20534;-62
2023/09/12 05:15:00;;;;;;;37.95;31.52;;;;;;;18.73;100.00;101076.88;5109643;28;20052;-62
2023/09/12 05:17:28;;;;;;;36.88;31.48;;;;;;;18.75;100.00;101080.22;5106665;28;20047;-62
2023/09/12 05:19:56;;;;;;;40.20;32.28;;;;;;;18.77;100.00;101073.91;5111184;28;20052;-62
2023/09/12 05:22:24;;;;;;;42.17;32.65;;;;;;;18.78;100.00;101072.91;5110323;28;20058;-62
2023/09/12 05:24:52;;;;;;;44.70;33.47;;;;;;;18.82;100.00;101082.28;5113314;28;20050;-62
2023/09/12 05:27:20;;;;;;;56.15;37.72;;;;;;;18.82;100.00;101093.78;5114742;28;20075;-62
2023/09/12 05:29:50;;;;;;;58.00;40.40;;;;;;;18.86;100.00;101099.66;5114738;28;20040;-62
2023/09/12 05:32:18;;;;;;;64.65;41.85;;;;;;;18.89;100.00;101105.53;5114749;28;20044;-61
2023/09/12 05:34:49;;;;;;;61.72;40.50;;;;;;;18.91;100.00;101105.41;5114745;28;20052;-62
2023/09/12 05:37:18;;;;;;;64.93;42.60;;;;;;;18.94;100.00;101102.44;5114551;28;20097;-62
2023/09/12 05:39:47;;;;;;;67.43;44.00;;;;;;;18.91;100.00;101103.59;5115097;28;20467;-62
2023/09/12 05:42:20;;;;;;;68.85;43.88;;;;;;;18.92;100.00;101104.41;5114750;28;20048;-62
2023/09/12 05:44:53;;;;;;;68.30;42.03;;;;;;;18.95;100.00;101106.81;5114310;28;20048;-61
2023/09/12 05:47:21;;;;;;;;;;;;;;;18.94;100.00;101107.78;5113507;28;20083;-62
2023/09/12 05:49:49;;;;;;;62.13;39.13;;;;;;;18.97;100.00;101110.16;5114441;27;20282;-62
2023/09/12 05:52:17;;;;;;;68.95;43.72;;;;;;;19.00;100.00;101107.16;5114362;28;20048;-62
2023/09/12 05:54:45;;;;;;;66.03;43.33;;;;;;;19.02;100.00;101099.03;5114484;28;20050;-61
2023/09/12 05:57:13;;;;;;;65.75;41.97;;;;;;;19.06;100.00;101095.06;5113148;28;20367;-61
2023/09/12 05:59:42;;;;;;;65.03;42.58;;;;;;;19.06;100.00;101095.06;5114891;28;20067;-62
2023/09/12 06:02:12;;;;;;;64.22;42.55;;;;;;;19.01;100.00;101095.53;5113142;28;20048;-62
2023/09/12 06:04:40;;;;;;;64.10;42.05;;;;;;;19.03;100.00;101103.38;5111041;28;20048;-62
2023/09/12 06:07:11;;;;;;;67.53;42.70;;;;;;;19.05;100.00;101106.75;5109884;28;20092;-62
2023/09/12 06:09:41;;;;;;;65.28;43.15;;;;;;;19.10;100.00;101107.13;5109329;28;20059;-61
2023/09/12 06:12:10;;;;;;;65.88;43.13;;;;;;;19.11;100.00;101118.63;5111483;28;20051;-61
2023/09/12 06:14:38;;;;;;;68.25;44.85;;;;;;;19.05;100.00;101128.91;5110805;28;20055;-61
2023/09/12 06:17:06;;;;;;;65.00;44.92;;;;;;;19.09;100.00;101126.78;5111288;28;20055;-61
2023/09/12 06:19:35;;;;;;;71.43;45.85;;;;;;;19.06;100.00;101122.59;5109953;28;20051;-61
2023/09/12 06:22:04;;;;;;;68.38;43.67;;;;;;;19.12;100.00;101123.81;5110647;28;20100;-62
2023/09/12 06:24:32;;;;;;;70.72;46.20;;;;;;;19.19;100.00;101124.88;5110457;28;20048;-62
2023/09/12 06:27:00;;;;;;;67.85;45.10;;;;;;;19.23;100.00;101131.59;5110997;28;20387;-61
2023/09/12 06:29:28;;;;;;;73.10;44.58;;;;;;;19.25;100.00;101134.09;5112518;28;20043;-62
2023/09/12 06:31:57;;;;;;;67.50;43.67;;;;;;;19.29;100.00;101130.16;5111729;28;20766;-61
2023/09/12 06:34:27;;;;;;;65.47;43.78;;;;;;;19.33;100.00;101139.53;5110694;28;20069;-61
2023/09/12 06:36:57;;;;;;;69.18;45.42;;;;;;;19.29;100.00;101138.13;5112206;28;20073;-61
2023/09/12 06:39:25;;;;;;;66.88;45.72;;;;;;;19.34;100.00;101129.72;5110569;28;20390;-61
2023/09/12 06:41:53;;;;;;;68.30;44.80;;;;;;;19.33;100.00;101139.53;5110754;28;20040;-62
2023/09/12 06:44:24;;;;;;;64.63;44.58;;;;;;;19.34;100.00;101135.03;5110724;28;20078;-61
2023/09/12 06:46:55;;;;;;;66.88;44.65;;;;;;;19.39;100.00;101138.09;5110284;28;20047;-61
2023/09/12 06:49:24;;;;;;;68.43;45.78;;;;;;;19.34;100.00;101141.22;5110717;28;20130;-61
2023/09/12 06:51:52;;;;;;;73.90;46.53;;;;;;;19.40;100.00;101143.28;5111320;28;20048;-61
2023/09/12 06:54:21;;;;;;;68.43;46.45;;;;;;;19.40;100.00;101129.94;5111740;28;20060;-61
2023/09/12 06:56:50;;;;;;;72.95;46.60;;;;;;;19.37;100.00;101146.25;5113308;27;20054;-61
2023/09/12 06:59:18;;;;;;;64.60;45.15;;;;;;;19.45;100.00;101147.31;5113123;28;20051;-61
2023/09/12 07:01:46;;;;;;;65.95;45.70;;;;;;;19.43;100.00;101150.97;5113184;28;20119;-61
2023/09/12 07:04:14;;;;;;;72.07;45.58;;;;;;;19.38;100.00;101139.09;5112376;27;20146;-61
2023/09/12 07:06:43;;;;;;;64.80;44.60;;;;;;;19.46;100.00;101147.16;5108978;28;20413;-61
2023/09/12 07:09:14;;;;;;;67.53;44.83;;;;;;;19.51;100.00;101139.56;5109964;28;20039;-61
2023/09/12 07:11:44;;;;;;;67.45;46.33;;;;;;;19.52;100.00;101135.88;5109128;28;20059;-61
2023/09/12 07:14:12;;;;;;;66.72;45.00;;;;;;;19.55;100.00;101137.41;5110657;27;20051;-61
2023/09/12 07:16:40;;;;;;;70.18;44.97;;;;;;;19.55;100.00;101142.75;5109314;28;20052;-62
2023/09/12 07:19:11;;;;;;;65.18;42.65;;;;;;;19.59;100.00;101141.44;5110202;28;20405;-61
2023/09/12 07:21:39;;;;;;;63.25;43.90;;;;;;;19.64;100.00;101144.50;5108791;28;20486;-55
2023/09/12 07:24:07;;;;;;;62.67;41.75;;;;;;;19.64;100.00;101144.50;5111729;28;20116;-56
2023/09/12 07:26:36;;;;;;;66.07;45.42;;;;;;;19.66;100.00;101137.22;5112602;27;20146;-55
2023/09/12 07:29:05;;;;;;;64.78;42.92;;;;;;;19.68;100.00;101148.53;5112362;28;20031;-61
2023/09/12 07:31:33;;;;;;;59.95;42.05;;;;;;;19.72;100.00;101144.59;5110984;28;20673;-61
2023/09/12 07:34:02;;;;;;;64.10;42.80;;;;;;;19.83;100.00;101150.72;5108436;28;20070;-61
2023/09/12 07:36:33;;;;;;;59.58;41.78;;;;;;;19.88;100.00;101154.59;5111702;28;20047;-62
2023/09/12 07:39:02;;;;;;;56.40;40.53;;;;;;;19.88;100.00;101153.78;5112411;28;20036;-62
2023/09/12 07:41:31;;;;;;;57.15;41.30;;;;;;;20.00;100.00;101147.22;5112045;28;20043;-61
2023/09/12 07:44:01;;;;;;;61.85;41.60;;;;;;;20.00;100.00;101151.69;5112110;28;20047;-61
2023/09/12 07:46:30;;;;;;;56.35;39.92;;;;;;;20.02;100.00;101147.88;5112152;28;20077;-61
2023/09/12 07:48:59;;;;;;;58.10;40.60;;;;;;;20.01;100.00;101142.69;5112150;28;20043;-61
2023/09/12 07:51:26;;;;;;;57.30;39.10;;;;;;;20.10;100.00;101141.78;5106832;28;20060;-61
2023/09/12 07:53:55;;;;;;;59.72;40.53;;;;;;;20.10;100.00;101139.94;5102215;28;20123;-61
2023/09/12 07:56:23;;;;;;;54.40;39.08;;;;;;;20.13;100.00;101146.78;5107427;28;20051;-61
2023/09/12 07:58:51;;;;;;;57.70;39.75;;;;;;;20.17;100.00;101144.66;5108286;28;20110;-61
2023/09/12 08:01:19;;;;;;;63.58;42.45;;;;;;;20.23;100.00;101131.53;5108196;28;20040;-61
2023/09/12 08:03:49;;;;;;;64.28;43.53;;;;;;;20.32;100.00;101131.59;5107678;28;20051;-61
2023/09/12 08:06:20;;;;;;;61.10;42.50;;;;;;;20.38;100.00;101129.13;5107700;28;20454;-61
2023/09/12 08:08:48;;;;;;;58.95;42.42;;;;;;;20.41;100.00;101126.13;5106250;28;20093;-61
2023/09/12 08:11:16;;;;;;;57.75;40.53;;;;;;;20.41;100.00;101118.13;5109026;28;20055;-62
2023/09/12 08:13:44;;;;;;;61.05;40.42;;;;;;;20.46;100.00;101124.81;5109381;28;20055;-61
2023/09/12 08:16:12;;;;;;;56.92;40.35;;;;;;;20.54;100.00;101139.03;5107778;28;20052;-62
2023/09/12 08:18:41;;;;;;;56.92;40.80;;;;;;;20.61;100.00;101133.91;5110138;28;20036;-60
2023/09/12 08:21:11;;;;;;;51.92;39.60;;;;;;;20.58;100.00;101132.38;5107953;28;20529;-60
2023/09/12 08:23:39;;;;;;;59.38;42.47;;;;;;;20.69;100.00;101141.16;5108057;28;20108;-61
2023/09/12 08:26:11;;;;;;;54.53;40.22;;;;;;;20.72;100.00;101141.69;5109695;28;20040;-61
2023/09/12 08:28:40;;;;;;;53.55;39.35;;;;;;;20.83;100.00;101139.72;5107743;28;20039;-61
2023/09/12 08:31:09;;;;;;;56.13;40.33;;;;;;;20.91;100.00;101139.75;5107444;28;20047;-62
2023/09/12 08:33:39;;;;;;;53.00;37.97;;;;;;;20.95;100.00;101146.47;5108298;28;20127;-60
2023/09/12 08:36:07;;;;;;;49.80;36.30;;;;;;;21.13;100.00;101153.53;5110048;28;20638;-60
2023/09/12 08:38:37;;;;;;;53.72;37.95;;;;;;;21.36;100.00;101157.28;5105537;28;20066;-60
2023/09/12 08:41:07;;;;;;;52.92;38.25;;;;;;;21.55;100.00;101166.06;5109643;28;20490;-60
2023/09/12 08:43:35;;;;;;;47.83;34.78;;;;;;;21.67;100.00;101172.78;5111556;28;20401;-61
2023/09/12 08:46:03;;;;;;;48.53;36.83;;;;;;;21.50;100.00;101176.38;5111143;28;20780;-62
2023/09/12 08:48:32;;;;;;;47.83;36.38;;;;;;;21.69;100.00;101175.28;5107475;28;20566;-60
2023/09/12 08:51:03;;;;;;;48.70;35.65;;;;;;;21.93;100.00;101174.47;5107634;28;20038;-60
2023/09/12 08:53:31;;;;;;;43.42;31.80;;;;;;;21.88;100.00;101188.38;5106295;28;20062;-59
2023/09/12 08:56:03;;;;;;;40.72;30.92;;;;;;;21.91;100.00;101184.50;5112883;28;20046;-60
2023/09/12 08:58:33;;;;;;;39.25;29.73;;;;;;;22.18;100.00;101187.84;5114556;27;20096;-60
2023/09/12 09:01:03;;;;;;;40.38;30.08;;;;;;;22.35;100.00;101178.84;5113862;28;20051;-60
2023/09/12 09:03:32;;;;;;;38.88;31.75;;;;;;;22.55;100.00;101189.16;5111130;28;20044;-60
2023/09/12 09:06:01;;;;;;;44.20;33.03;;;;;;;22.70;100.00;101184.81;5110610;28;20131;-60
2023/09/12 09:08:31;;;;;;;41.60;30.73;;;;;;;22.94;100.00;101185.72;5109231;28;20053;-60
2023/09/12 09:11:03;;;;;;;40.38;30.08;;;;;;;23.15;100.00;101178.97;5109982;28;20087;-60
2023/09/12 09:13:31;;;;;;;47.25;33.58;;;;;;;22.90;100.00;101179.03;5111022;28;20160;-59
2023/09/12 09:16:19;;;;;;;40.55;31.00;;;;;;;23.09;100.00;101188.50;5110686;28;20049;-59
2023/09/12 09:18:53;;;;;;;38.67;27.88;;;;;;;23.07;100.00;101188.69;5113662;28;20471;-60
2023/09/12 09:21:24;;;;;;;35.63;26.83;;;;;;;23.06;100.00;101189.69;5110714;28;20089;-60
2023/09/12 09:23:53;;;;;;;35.22;26.95;;;;;;;23.25;100.00;101188.47;5109333;27;20054;-60
2023/09/12 09:26:23;;;;;;;35.10;26.38;;;;;;;23.33;100.00;101190.28;5109931;28;20044;-59
2023/09/12 09:29:09;;;;;;;37.38;28.13;;;;;;;23.59;100.00;101198.00;5110989;28;20126;-60
2023/09/12 09:31:41;;;;;;;36.88;28.02;;;;;;;23.76;100.00;101206.81;5110121;27;20486;-60
2023/09/12 09:34:14;;;;;;;32.28;24.38;;;;;;;24.03;100.00;101211.84;5110816;27;20047;-60
2023/09/12 09:36:44;;;;;;;32.47;24.08;;;;;;;24.25;100.00;101202.91;5109452;28;20047;-60
2023/09/12 09:39:13;;;;;;;30.23;23.40;;;;;;;24.13;100.00;101215.09;5110263;28;20870;-59
2023/09/12 09:41:47;;;;;;;28.20;21.42;;;;;;;24.13;100.00;101213.28;5109583;28;20097;-59
2023/09/12 09:44:16;;;;;;;27.60;21.55;;;;;;;24.57;100.00;101208.16;5110934;28;20057;-60
2023/09/12 09:46:44;;;;;;;30.88;23.00;;;;;;;24.94;100.00;101209.97;5109584;28;20138;-60
2023/09/12 09:49:17;;;;;;;30.43;24.00;;;;;;;25.25;100.00;101213.44;5110320;28;20089;-59
2023/09/12 09:51:45;;;;;;;29.17;22.08;;;;;;;25.54;100.00;101209.09;5112657;28;20039;-60
2023/09/12 09:54:15;;;;;;;23.25;17.98;;;;;;;25.68;100.00;101210.88;5110737;28;20047;-59
2023/09/12 09:56:48;;;;;;;22.90;16.48;;;;;;;25.53;100.00;101220.88;5109193;28;20469;-60
2023/09/12 09:59:17;;;;;;;25.33;19.45;;;;;;;25.32;100.00;101217.06;5114192;28;20058;-60
2023/09/12 10:01:50;;;;;;;25.80;20.95;;;;;;;25.41;100.00;101215.13;5114308;28;20048;-60
2023/09/12 10:04:19;;;;;;;23.00;19.35;;;;;;;25.59;100.00;101217.41;5113577;28;20126;-61
2023/09/12 10:06:48;;;;;;;22.20;18.70;;;;;;;25.46;100.00;101218.91;5109823;28;20479;-60
2023/09/12 10:09:17;;;;;;;23.83;17.42;;;;;;;25.76;100.00;101224.22;5109348;28;20056;-58
2023/09/12 10:11:49;;;;;;;22.00;16.90;;;;;;;25.93;100.00;101218.56;5109056;28;20552;-58
2023/09/12 10:14:20;;;;;;;21.55;15.82;;;;;;;26.24;100.00;101214.75;5110087;28;20131;-60
2023/09/12 10:16:51;;;;;;;18.73;14.35;;;;;;;26.62;100.00;101204.44;5110043;28;20155;-60
2023/09/12 10:19:22;;;;;;;17.73;13.95;;;;;;;26.38;100.00;101210.28;5109817;28;20055;-60
2023/09/12 10:22:03;;;;;;;16.40;12.48;;;;;;;26.76;100.00;101212.63;5108660;28;20045;-60
2023/09/12 10:24:34;;;;;;;20.10;13.07;;;;;;;26.99;100.00;101193.47;5109082;28;20040;-58
2023/09/12 10:27:06;;;;;;;17.48;14.57;;;;;;;26.98;100.00;101194.47;5111601;28;20048;-59
2023/09/12 10:29:35;;;;;;;17.90;14.07;;;;;;;27.19;100.00;101196.25;5113523;28;20049;-60
2023/09/12 10:32:04;;;;;;;19.10;15.65;;;;;;;27.23;100.00;101191.25;5113311;28;20047;-59
2023/09/12 10:34:33;;;;;;;17.30;13.45;;;;;;;27.68;100.00;101194.34;5113565;28;20538;-60
2023/09/12 10:37:04;;;;;;;15.10;12.15;;;;;;;28.06;100.00;101196.50;5113399;28;20126;-58
2023/09/12 10:39:33;;;;;;;15.85;12.07;;;;;;;28.37;100.00;101186.88;5113442;28;20050;-60
2023/09/12 10:42:07;;;;;;;19.75;15.48;;;;;;;28.34;100.00;101184.59;5113254;28;20093;-59
2023/09/12 10:44:36;;;;;;;19.15;15.23;;;;;;;28.20;100.00;101193.78;5113383;28;20047;-60
2023/09/12 10:47:05;;;;;;;17.48;15.07;;;;;;;28.62;100.00;101186.25;5113309;28;20044;-60
2023/09/12 10:49:34;;;;;;;17.45;13.60;;;;;;;28.74;100.00;101176.47;5113149;28;20047;-59
2023/09/12 10:52:03;;;;;;;18.13;14.38;;;;;;;29.22;100.00;101177.06;5113095;28;20502;-59
2023/09/12 10:54:38;;;;;;;16.85;13.25;;;;;;;29.49;100.00;101177.78;5113347;28;20089;-60
2023/09/12 10:57:11;;;;;;;16.35;12.95;;;;;;;29.60;100.00;101181.69;5113020;28;20456;-59
2023/09/12 11:00:12;;;;;;;17.48;13.65;;;;;;;29.70;100.00;101183.94;5112828;28;20047;-59
2023/09/12 11:02:41;;;;;;;14.05;12.02;;;;;;;29.42;100.00;101183.25;5113006;28;20044;-59
2023/09/12 11:05:37;;;;;;;19.20;12.30;;;;;;;29.95;100.00;101189.38;5112875;28;20044;-59
2023/09/12 11:08:05;;;;;;;16.35;11.55;;;;;;;30.24;100.00;101177.03;5112721;28;20450;-59
2023/09/12 11:10:33;;;;;;;16.13;11.73;;;;;;;30.42;100.00;101180.81;5111194;28;20117;-60
2023/09/12 11:13:03;;;;;;;15.95;11.43;;;;;;;30.56;100.00;101182.38;5110682;28;20504;-60